sensor_id;sensor_type;location;lat;lon;timestamp;P1;durP1;ratioP1;P2;durP2;ratioP2
52614;SDS011;38508;53.158;6.614;2022-11-22T00:00:59;38.25;;;17.17;;
52614;SDS011;38508;53.158;6.614;2022-11-22T00:03:25;37.97;;;17.05;;
52614;SDS011;38508;53.158;6.614;2022-11-22T00:05:51;42.60;;;18.15;;
52614;SDS011;38508;53.158;6.614;2022-11-22T00:08:16;38.10;;;17.85;;
52614;SDS011;38508;53.158;6.614;2022-11-22T00:10:42;42.88;;;18.88;;
52614;SDS011;38508;53.158;6.614;2022-11-22T00:13:08;47.85;;;19.88;;
52614;SDS011;38508;53.158;6.614;2022-11-22T00:15:34;41.88;;;18.45;;
52614;SDS011;38508;53.158;6.614;2022-11-22T00:18:00;38.05;;;17.50;;
52614;SDS011;38508;53.158;6.614;2022-11-22T00:20:25;36.85;;;17.67;;
52614;SDS011;38508;53.158;6.614;2022-11-22T00:22:51;45.03;;;18.63;;
52614;SDS011;38508;53.158;6.614;2022-11-22T00:25:17;42.00;;;18.25;;
52614;SDS011;38508;53.158;6.614;2022-11-22T00:27:43;41.45;;;18.65;;
52614;SDS011;38508;53.158;6.614;2022-11-22T00:30:09;44.13;;;18.65;;
52614;SDS011;38508;53.158;6.614;2022-11-22T00:32:35;45.38;;;20.52;;
52614;SDS011;38508;53.158;6.614;2022-11-22T00:35:01;45.25;;;19.50;;
52614;SDS011;38508;53.158;6.614;2022-11-22T00:37:27;44.58;;;19.67;;
52614;SDS011;38508;53.158;6.614;2022-11-22T00:39:53;41.60;;;19.08;;
52614;SDS011;38508;53.158;6.614;2022-11-22T00:42:18;43.95;;;18.67;;
52614;SDS011;38508;53.158;6.614;2022-11-22T00:44:44;42.13;;;19.77;;
52614;SDS011;38508;53.158;6.614;2022-11-22T00:47:09;47.63;;;19.60;;
52614;SDS011;38508;53.158;6.614;2022-11-22T00:49:35;51.78;;;21.38;;
52614;SDS011;38508;53.158;6.614;2022-11-22T00:52:01;45.40;;;19.77;;
52614;SDS011;38508;53.158;6.614;2022-11-22T00:54:26;55.50;;;20.40;;
52614;SDS011;38508;53.158;6.614;2022-11-22T00:56:52;50.63;;;20.88;;
52614;SDS011;38508;53.158;6.614;2022-11-22T00:59:18;54.83;;;22.75;;
52614;SDS011;38508;53.158;6.614;2022-11-22T01:01:43;44.78;;;19.45;;
52614;SDS011;38508;53.158;6.614;2022-11-22T01:04:09;45.95;;;20.48;;
52614;SDS011;38508;53.158;6.614;2022-11-22T01:06:35;45.00;;;19.75;;
52614;SDS011;38508;53.158;6.614;2022-11-22T01:09:00;46.08;;;20.58;;
52614;SDS011;38508;53.158;6.614;2022-11-22T01:11:26;48.80;;;19.20;;
52614;SDS011;38508;53.158;6.614;2022-11-22T01:13:52;55.20;;;22.13;;
52614;SDS011;38508;53.158;6.614;2022-11-22T01:16:18;50.83;;;20.05;;
52614;SDS011;38508;53.158;6.614;2022-11-22T01:18:43;53.45;;;21.20;;
52614;SDS011;38508;53.158;6.614;2022-11-22T01:21:09;49.42;;;19.98;;
52614;SDS011;38508;53.158;6.614;2022-11-22T01:23:35;46.30;;;20.85;;
52614;SDS011;38508;53.158;6.614;2022-11-22T01:26:02;51.35;;;22.13;;
52614;SDS011;38508;53.158;6.614;2022-11-22T01:28:27;51.92;;;21.63;;
52614;SDS011;38508;53.158;6.614;2022-11-22T01:30:53;59.53;;;23.50;;
52614;SDS011;38508;53.158;6.614;2022-11-22T01:33:19;53.30;;;22.38;;
52614;SDS011;38508;53.158;6.614;2022-11-22T01:35:45;66.75;;;24.25;;
52614;SDS011;38508;53.158;6.614;2022-11-22T01:38:11;52.75;;;21.88;;
52614;SDS011;38508;53.158;6.614;2022-11-22T01:40:37;52.63;;;21.92;;
52614;SDS011;38508;53.158;6.614;2022-11-22T01:43:03;57.20;;;22.35;;
52614;SDS011;38508;53.158;6.614;2022-11-22T01:50:37;55.13;;;23.33;;
52614;SDS011;38508;53.158;6.614;2022-11-22T01:53:06;53.92;;;23.73;;
52614;SDS011;38508;53.158;6.614;2022-11-22T01:55:36;60.97;;;23.33;;
52614;SDS011;38508;53.158;6.614;2022-11-22T01:58:02;61.25;;;23.85;;
52614;SDS011;38508;53.158;6.614;2022-11-22T02:00:28;52.67;;;22.33;;
52614;SDS011;38508;53.158;6.614;2022-11-22T02:02:57;51.75;;;22.27;;
52614;SDS011;38508;53.158;6.614;2022-11-22T02:05:26;60.85;;;24.83;;
52614;SDS011;38508;53.158;6.614;2022-11-22T02:11:01;63.38;;;24.08;;
52614;SDS011;38508;53.158;6.614;2022-11-22T02:13:28;61.47;;;24.52;;
52614;SDS011;38508;53.158;6.614;2022-11-22T02:15:58;62.47;;;23.85;;
52614;SDS011;38508;53.158;6.614;2022-11-22T02:18:24;59.42;;;23.13;;
52614;SDS011;38508;53.158;6.614;2022-11-22T02:20:50;63.80;;;24.95;;
52614;SDS011;38508;53.158;6.614;2022-11-22T02:25:59;66.32;;;25.80;;
52614;SDS011;38508;53.158;6.614;2022-11-22T02:28:27;63.35;;;23.90;;
52614;SDS011;38508;53.158;6.614;2022-11-22T02:30:56;47.75;;;21.17;;
52614;SDS011;38508;53.158;6.614;2022-11-22T02:33:22;61.42;;;24.95;;
52614;SDS011;38508;53.158;6.614;2022-11-22T02:35:48;58.80;;;24.05;;
52614;SDS011;38508;53.158;6.614;2022-11-22T02:38:14;64.13;;;24.13;;
52614;SDS011;38508;53.158;6.614;2022-11-22T02:40:59;60.15;;;24.40;;
52614;SDS011;38508;53.158;6.614;2022-11-22T02:43:29;57.33;;;23.52;;
52614;SDS011;38508;53.158;6.614;2022-11-22T02:46:04;70.88;;;27.27;;
52614;SDS011;38508;53.158;6.614;2022-11-22T02:48:31;51.30;;;21.92;;
52614;SDS011;38508;53.158;6.614;2022-11-22T02:50:57;59.55;;;23.08;;
52614;SDS011;38508;53.158;6.614;2022-11-22T02:53:23;52.97;;;23.02;;
52614;SDS011;38508;53.158;6.614;2022-11-22T02:55:49;59.22;;;23.13;;
52614;SDS011;38508;53.158;6.614;2022-11-22T02:58:14;55.03;;;24.05;;
52614;SDS011;38508;53.158;6.614;2022-11-22T03:00:40;52.90;;;21.98;;
52614;SDS011;38508;53.158;6.614;2022-11-22T03:03:06;47.42;;;21.00;;
52614;SDS011;38508;53.158;6.614;2022-11-22T03:05:31;51.15;;;21.90;;
52614;SDS011;38508;53.158;6.614;2022-11-22T03:07:58;53.97;;;21.80;;
52614;SDS011;38508;53.158;6.614;2022-11-22T03:10:23;60.85;;;24.38;;
52614;SDS011;38508;53.158;6.614;2022-11-22T03:12:49;46.03;;;21.42;;
52614;SDS011;38508;53.158;6.614;2022-11-22T03:15:15;46.83;;;21.58;;
52614;SDS011;38508;53.158;6.614;2022-11-22T03:17:40;46.28;;;20.40;;
52614;SDS011;38508;53.158;6.614;2022-11-22T03:20:06;57.75;;;23.20;;
52614;SDS011;38508;53.158;6.614;2022-11-22T03:22:32;46.88;;;20.60;;
52614;SDS011;38508;53.158;6.614;2022-11-22T03:24:58;52.33;;;22.00;;
52614;SDS011;38508;53.158;6.614;2022-11-22T03:27:24;43.17;;;20.67;;
52614;SDS011;38508;53.158;6.614;2022-11-22T03:29:50;54.17;;;21.48;;
52614;SDS011;38508;53.158;6.614;2022-11-22T03:32:15;50.65;;;21.33;;
52614;SDS011;38508;53.158;6.614;2022-11-22T03:34:41;53.83;;;23.65;;
52614;SDS011;38508;53.158;6.614;2022-11-22T03:37:07;61.17;;;23.40;;
52614;SDS011;38508;53.158;6.614;2022-11-22T03:39:33;49.35;;;21.85;;
52614;SDS011;38508;53.158;6.614;2022-11-22T03:41:58;48.72;;;21.00;;
52614;SDS011;38508;53.158;6.614;2022-11-22T03:44:24;44.38;;;19.55;;
52614;SDS011;38508;53.158;6.614;2022-11-22T03:46:50;51.25;;;20.35;;
52614;SDS011;38508;53.158;6.614;2022-11-22T03:49:15;42.25;;;20.30;;
52614;SDS011;38508;53.158;6.614;2022-11-22T03:51:41;43.75;;;20.20;;
52614;SDS011;38508;53.158;6.614;2022-11-22T03:54:07;40.83;;;20.00;;
52614;SDS011;38508;53.158;6.614;2022-11-22T03:56:32;55.63;;;21.27;;
52614;SDS011;38508;53.158;6.614;2022-11-22T03:58:58;53.95;;;22.17;;
52614;SDS011;38508;53.158;6.614;2022-11-22T04:01:24;46.95;;;21.05;;
52614;SDS011;38508;53.158;6.614;2022-11-22T04:03:49;38.83;;;19.15;;
52614;SDS011;38508;53.158;6.614;2022-11-22T04:06:16;47.90;;;20.67;;
52614;SDS011;38508;53.158;6.614;2022-11-22T04:08:42;41.72;;;19.45;;
52614;SDS011;38508;53.158;6.614;2022-11-22T04:11:08;40.25;;;18.98;;
52614;SDS011;38508;53.158;6.614;2022-11-22T04:13:34;53.67;;;21.45;;
52614;SDS011;38508;53.158;6.614;2022-11-22T04:16:18;46.50;;;19.90;;
52614;SDS011;38508;53.158;6.614;2022-11-22T04:18:43;52.10;;;22.25;;
52614;SDS011;38508;53.158;6.614;2022-11-22T04:21:09;43.63;;;20.08;;
52614;SDS011;38508;53.158;6.614;2022-11-22T04:23:53;41.58;;;18.83;;
52614;SDS011;38508;53.158;6.614;2022-11-22T04:26:37;45.72;;;20.90;;
52614;SDS011;38508;53.158;6.614;2022-11-22T04:29:03;42.65;;;19.63;;
52614;SDS011;38508;53.158;6.614;2022-11-22T04:31:29;50.58;;;21.83;;
52614;SDS011;38508;53.158;6.614;2022-11-22T04:34:13;36.90;;;17.98;;
52614;SDS011;38508;53.158;6.614;2022-11-22T04:36:38;45.63;;;19.42;;
52614;SDS011;38508;53.158;6.614;2022-11-22T04:39:04;49.25;;;20.15;;
52614;SDS011;38508;53.158;6.614;2022-11-22T04:41:30;54.42;;;21.55;;
52614;SDS011;38508;53.158;6.614;2022-11-22T04:43:56;45.13;;;18.55;;
52614;SDS011;38508;53.158;6.614;2022-11-22T04:46:40;39.53;;;18.90;;
52614;SDS011;38508;53.158;6.614;2022-11-22T04:49:06;39.90;;;18.92;;
52614;SDS011;38508;53.158;6.614;2022-11-22T04:51:31;50.83;;;21.23;;
52614;SDS011;38508;53.158;6.614;2022-11-22T04:54:17;37.33;;;18.63;;
52614;SDS011;38508;53.158;6.614;2022-11-22T04:56:43;44.00;;;19.73;;
52614;SDS011;38508;53.158;6.614;2022-11-22T04:59:09;43.03;;;20.42;;
52614;SDS011;38508;53.158;6.614;2022-11-22T05:01:34;42.97;;;19.15;;
52614;SDS011;38508;53.158;6.614;2022-11-22T05:04:00;48.80;;;21.45;;
52614;SDS011;38508;53.158;6.614;2022-11-22T05:06:25;40.50;;;18.63;;
52614;SDS011;38508;53.158;6.614;2022-11-22T05:08:51;43.35;;;19.48;;
52614;SDS011;38508;53.158;6.614;2022-11-22T05:11:17;56.83;;;21.88;;
52614;SDS011;38508;53.158;6.614;2022-11-22T05:13:43;47.38;;;20.27;;
52614;SDS011;38508;53.158;6.614;2022-11-22T05:16:11;35.78;;;17.85;;
52614;SDS011;38508;53.158;6.614;2022-11-22T05:18:37;46.60;;;20.15;;
52614;SDS011;38508;53.158;6.614;2022-11-22T05:21:11;60.05;;;22.73;;
52614;SDS011;38508;53.158;6.614;2022-11-22T05:23:38;47.05;;;20.45;;
52614;SDS011;38508;53.158;6.614;2022-11-22T05:26:23;44.08;;;19.17;;
52614;SDS011;38508;53.158;6.614;2022-11-22T05:28:50;48.20;;;21.08;;
52614;SDS011;38508;53.158;6.614;2022-11-22T05:31:17;42.80;;;19.38;;
52614;SDS011;38508;53.158;6.614;2022-11-22T05:33:47;53.08;;;21.77;;
52614;SDS011;38508;53.158;6.614;2022-11-22T05:36:14;36.70;;;17.88;;
52614;SDS011;38508;53.158;6.614;2022-11-22T05:38:40;39.55;;;19.52;;
52614;SDS011;38508;53.158;6.614;2022-11-22T05:41:06;40.72;;;19.13;;
52614;SDS011;38508;53.158;6.614;2022-11-22T05:43:34;37.28;;;20.08;;
52614;SDS011;38508;53.158;6.614;2022-11-22T05:46:08;48.33;;;22.15;;
52614;SDS011;38508;53.158;6.614;2022-11-22T05:48:37;37.33;;;18.98;;
52614;SDS011;38508;53.158;6.614;2022-11-22T05:51:05;35.97;;;18.95;;
52614;SDS011;38508;53.158;6.614;2022-11-22T05:53:31;43.97;;;20.05;;
52614;SDS011;38508;53.158;6.614;2022-11-22T05:56:02;58.25;;;23.33;;
52614;SDS011;38508;53.158;6.614;2022-11-22T05:58:29;50.00;;;20.95;;
52614;SDS011;38508;53.158;6.614;2022-11-22T06:00:55;42.70;;;21.10;;
52614;SDS011;38508;53.158;6.614;2022-11-22T06:03:20;36.58;;;18.33;;
52614;SDS011;38508;53.158;6.614;2022-11-22T06:05:50;42.35;;;19.33;;
52614;SDS011;38508;53.158;6.614;2022-11-22T06:08:16;52.17;;;21.58;;
52614;SDS011;38508;53.158;6.614;2022-11-22T06:10:42;48.20;;;20.85;;
52614;SDS011;38508;53.158;6.614;2022-11-22T06:13:08;37.75;;;18.98;;
52614;SDS011;38508;53.158;6.614;2022-11-22T06:15:33;38.72;;;19.25;;
52614;SDS011;38508;53.158;6.614;2022-11-22T06:17:59;42.30;;;20.30;;
52614;SDS011;38508;53.158;6.614;2022-11-22T06:20:25;41.85;;;19.85;;
52614;SDS011;38508;53.158;6.614;2022-11-22T06:22:51;38.50;;;18.70;;
52614;SDS011;38508;53.158;6.614;2022-11-22T06:25:16;46.42;;;18.52;;
52614;SDS011;38508;53.158;6.614;2022-11-22T06:27:42;40.17;;;19.38;;
52614;SDS011;38508;53.158;6.614;2022-11-22T06:30:08;40.17;;;18.80;;
52614;SDS011;38508;53.158;6.614;2022-11-22T06:32:34;53.13;;;22.75;;
52614;SDS011;38508;53.158;6.614;2022-11-22T06:35:00;33.75;;;17.30;;
52614;SDS011;38508;53.158;6.614;2022-11-22T06:37:27;44.63;;;20.27;;
52614;SDS011;38508;53.158;6.614;2022-11-22T06:39:53;38.70;;;19.02;;
52614;SDS011;38508;53.158;6.614;2022-11-22T06:42:19;32.45;;;18.08;;
52614;SDS011;38508;53.158;6.614;2022-11-22T06:44:44;33.53;;;17.92;;
52614;SDS011;38508;53.158;6.614;2022-11-22T06:47:10;43.63;;;20.02;;
52614;SDS011;38508;53.158;6.614;2022-11-22T06:49:36;32.35;;;17.42;;
52614;SDS011;38508;53.158;6.614;2022-11-22T06:52:02;34.70;;;18.17;;
52614;SDS011;38508;53.158;6.614;2022-11-22T06:54:27;40.80;;;19.77;;
52614;SDS011;38508;53.158;6.614;2022-11-22T06:56:53;34.58;;;18.75;;
52614;SDS011;38508;53.158;6.614;2022-11-22T06:59:19;47.10;;;20.92;;
52614;SDS011;38508;53.158;6.614;2022-11-22T07:01:44;37.63;;;19.08;;
52614;SDS011;38508;53.158;6.614;2022-11-22T07:04:10;48.13;;;19.38;;
52614;SDS011;38508;53.158;6.614;2022-11-22T07:06:36;48.45;;;20.45;;
52614;SDS011;38508;53.158;6.614;2022-11-22T07:09:04;41.03;;;18.98;;
52614;SDS011;38508;53.158;6.614;2022-11-22T07:11:31;49.92;;;21.85;;
52614;SDS011;38508;53.158;6.614;2022-11-22T07:13:59;46.22;;;22.40;;
52614;SDS011;38508;53.158;6.614;2022-11-22T07:16:26;38.78;;;18.88;;
52614;SDS011;38508;53.158;6.614;2022-11-22T07:18:52;38.45;;;19.63;;
52614;SDS011;38508;53.158;6.614;2022-11-22T07:21:21;43.00;;;19.73;;
52614;SDS011;38508;53.158;6.614;2022-11-22T07:23:53;53.03;;;22.45;;
52614;SDS011;38508;53.158;6.614;2022-11-22T07:26:20;32.50;;;18.92;;
52614;SDS011;38508;53.158;6.614;2022-11-22T07:28:48;37.60;;;18.00;;
52614;SDS011;38508;53.158;6.614;2022-11-22T07:31:14;37.63;;;18.60;;
52614;SDS011;38508;53.158;6.614;2022-11-22T07:33:41;32.83;;;17.27;;
52614;SDS011;38508;53.158;6.614;2022-11-22T07:36:11;37.97;;;18.52;;
52614;SDS011;38508;53.158;6.614;2022-11-22T07:38:42;35.50;;;17.23;;
52614;SDS011;38508;53.158;6.614;2022-11-22T07:41:08;42.13;;;19.23;;
52614;SDS011;38508;53.158;6.614;2022-11-22T07:43:34;42.00;;;20.13;;
52614;SDS011;38508;53.158;6.614;2022-11-22T07:46:00;33.22;;;16.75;;
52614;SDS011;38508;53.158;6.614;2022-11-22T07:48:27;37.85;;;17.50;;
52614;SDS011;38508;53.158;6.614;2022-11-22T07:50:53;36.30;;;17.52;;
52614;SDS011;38508;53.158;6.614;2022-11-22T07:53:19;44.15;;;16.27;;
52614;SDS011;38508;53.158;6.614;2022-11-22T07:55:44;31.20;;;15.15;;
52614;SDS011;38508;53.158;6.614;2022-11-22T07:58:10;33.67;;;14.82;;
52614;SDS011;38508;53.158;6.614;2022-11-22T08:00:36;29.90;;;14.07;;
52614;SDS011;38508;53.158;6.614;2022-11-22T08:03:02;29.23;;;14.68;;
52614;SDS011;38508;53.158;6.614;2022-11-22T08:05:28;35.20;;;15.13;;
52614;SDS011;38508;53.158;6.614;2022-11-22T08:07:53;37.97;;;14.38;;
52614;SDS011;38508;53.158;6.614;2022-11-22T08:10:19;30.83;;;12.60;;
52614;SDS011;38508;53.158;6.614;2022-11-22T08:12:46;31.35;;;13.60;;
52614;SDS011;38508;53.158;6.614;2022-11-22T08:15:12;23.30;;;11.60;;
52614;SDS011;38508;53.158;6.614;2022-11-22T08:17:39;29.13;;;12.52;;
52614;SDS011;38508;53.158;6.614;2022-11-22T08:20:05;23.98;;;10.45;;
52614;SDS011;38508;53.158;6.614;2022-11-22T08:22:33;27.33;;;10.40;;
52614;SDS011;38508;53.158;6.614;2022-11-22T08:25:04;26.75;;;9.98;;
52614;SDS011;38508;53.158;6.614;2022-11-22T08:27:32;22.35;;;8.57;;
52614;SDS011;38508;53.158;6.614;2022-11-22T08:29:58;26.20;;;9.52;;
52614;SDS011;38508;53.158;6.614;2022-11-22T08:32:24;32.13;;;9.40;;
52614;SDS011;38508;53.158;6.614;2022-11-22T08:34:49;20.88;;;8.38;;
52614;SDS011;38508;53.158;6.614;2022-11-22T08:37:15;27.65;;;8.90;;
52614;SDS011;38508;53.158;6.614;2022-11-22T08:39:41;19.27;;;7.82;;
52614;SDS011;38508;53.158;6.614;2022-11-22T08:42:06;24.58;;;7.45;;
52614;SDS011;38508;53.158;6.614;2022-11-22T08:44:32;27.75;;;9.10;;
52614;SDS011;38508;53.158;6.614;2022-11-22T08:46:57;24.67;;;8.23;;
52614;SDS011;38508;53.158;6.614;2022-11-22T08:49:23;23.25;;;7.75;;
52614;SDS011;38508;53.158;6.614;2022-11-22T08:51:49;22.45;;;7.60;;
52614;SDS011;38508;53.158;6.614;2022-11-22T08:54:15;19.52;;;6.93;;
52614;SDS011;38508;53.158;6.614;2022-11-22T08:56:40;22.08;;;7.88;;
52614;SDS011;38508;53.158;6.614;2022-11-22T08:59:06;25.48;;;8.48;;
52614;SDS011;38508;53.158;6.614;2022-11-22T09:01:32;25.83;;;7.32;;
52614;SDS011;38508;53.158;6.614;2022-11-22T09:03:58;15.85;;;6.43;;
52614;SDS011;38508;53.158;6.614;2022-11-22T09:06:23;20.23;;;7.07;;
52614;SDS011;38508;53.158;6.614;2022-11-22T09:08:49;15.88;;;6.70;;
52614;SDS011;38508;53.158;6.614;2022-11-22T09:11:16;27.27;;;7.25;;
52614;SDS011;38508;53.158;6.614;2022-11-22T09:13:43;23.55;;;6.85;;
52614;SDS011;38508;53.158;6.614;2022-11-22T09:16:18;17.38;;;6.45;;
52614;SDS011;38508;53.158;6.614;2022-11-22T09:18:44;20.98;;;6.10;;
52614;SDS011;38508;53.158;6.614;2022-11-22T09:21:12;20.60;;;6.55;;
52614;SDS011;38508;53.158;6.614;2022-11-22T09:23:44;24.48;;;6.85;;
52614;SDS011;38508;53.158;6.614;2022-11-22T09:26:12;25.30;;;6.05;;
52614;SDS011;38508;53.158;6.614;2022-11-22T09:28:39;14.55;;;5.82;;
52614;SDS011;38508;53.158;6.614;2022-11-22T09:31:13;19.75;;;6.20;;
52614;SDS011;38508;53.158;6.614;2022-11-22T09:33:40;15.25;;;5.78;;
52614;SDS011;38508;53.158;6.614;2022-11-22T09:36:16;23.67;;;6.90;;
52614;SDS011;38508;53.158;6.614;2022-11-22T09:38:46;19.23;;;4.97;;
52614;SDS011;38508;53.158;6.614;2022-11-22T09:46:42;18.77;;;4.75;;
52614;SDS011;38508;53.158;6.614;2022-11-22T09:51:54;23.17;;;4.25;;
52614;SDS011;38508;53.158;6.614;2022-11-22T09:54:28;13.45;;;3.67;;
52614;SDS011;38508;53.158;6.614;2022-11-22T09:57:00;12.68;;;3.42;;
52614;SDS011;38508;53.158;6.614;2022-11-22T09:59:31;11.20;;;3.70;;
52614;SDS011;38508;53.158;6.614;2022-11-22T10:02:03;17.02;;;3.55;;
52614;SDS011;38508;53.158;6.614;2022-11-22T10:04:38;20.65;;;3.65;;
52614;SDS011;38508;53.158;6.614;2022-11-22T10:07:12;16.90;;;3.30;;
52614;SDS011;38508;53.158;6.614;2022-11-22T10:12:35;14.38;;;3.63;;
52614;SDS011;38508;53.158;6.614;2022-11-22T10:15:27;15.00;;;3.20;;
52614;SDS011;38508;53.158;6.614;2022-11-22T10:18:01;10.13;;;2.90;;
52614;SDS011;38508;53.158;6.614;2022-11-22T10:20:37;10.50;;;3.25;;
52614;SDS011;38508;53.158;6.614;2022-11-22T10:23:27;14.93;;;3.20;;
52614;SDS011;38508;53.158;6.614;2022-11-22T10:26:02;12.93;;;2.70;;
52614;SDS011;38508;53.158;6.614;2022-11-22T10:28:37;14.63;;;3.05;;
52614;SDS011;38508;53.158;6.614;2022-11-22T10:31:14;8.75;;;2.55;;
52614;SDS011;38508;53.158;6.614;2022-11-22T10:47:27;9.55;;;2.95;;
52614;SDS011;38508;53.158;6.614;2022-11-22T11:00:39;9.95;;;2.08;;
52614;SDS011;38508;53.158;6.614;2022-11-22T11:03:11;10.63;;;1.98;;
52614;SDS011;38508;53.158;6.614;2022-11-22T11:05:50;11.23;;;2.10;;
52614;SDS011;38508;53.158;6.614;2022-11-22T11:08:31;8.90;;;1.92;;
52614;SDS011;38508;53.158;6.614;2022-11-22T11:11:04;10.93;;;1.88;;
52614;SDS011;38508;53.158;6.614;2022-11-22T11:13:46;10.00;;;1.80;;
52614;SDS011;38508;53.158;6.614;2022-11-22T11:16:17;10.20;;;1.90;;
52614;SDS011;38508;53.158;6.614;2022-11-22T11:18:49;10.93;;;1.98;;
52614;SDS011;38508;53.158;6.614;2022-11-22T11:21:22;10.80;;;1.98;;
52614;SDS011;38508;53.158;6.614;2022-11-22T11:23:47;9.75;;;1.83;;
52614;SDS011;38508;53.158;6.614;2022-11-22T11:28:40;13.68;;;2.38;;
52614;SDS011;38508;53.158;6.614;2022-11-22T11:31:09;10.20;;;2.03;;
52614;SDS011;38508;53.158;6.614;2022-11-22T11:33:38;11.88;;;2.13;;
52614;SDS011;38508;53.158;6.614;2022-11-22T11:43:57;9.27;;;2.60;;
52614;SDS011;38508;53.158;6.614;2022-11-22T11:46:25;8.95;;;2.30;;
52614;SDS011;38508;53.158;6.614;2022-11-22T11:48:53;6.68;;;1.92;;
52614;SDS011;38508;53.158;6.614;2022-11-22T11:51:24;6.60;;;1.95;;
52614;SDS011;38508;53.158;6.614;2022-11-22T11:54:10;8.63;;;1.92;;
52614;SDS011;38508;53.158;6.614;2022-11-22T11:59:22;6.47;;;1.73;;
52614;SDS011;38508;53.158;6.614;2022-11-22T12:01:58;4.40;;;1.40;;
52614;SDS011;38508;53.158;6.614;2022-11-22T12:04:30;6.57;;;2.08;;
52614;SDS011;38508;53.158;6.614;2022-11-22T12:07:21;13.02;;;1.90;;
52614;SDS011;38508;53.158;6.614;2022-11-22T12:09:47;9.45;;;1.80;;
52614;SDS011;38508;53.158;6.614;2022-11-22T12:14:40;8.02;;;1.73;;
52614;SDS011;38508;53.158;6.614;2022-11-22T12:17:11;8.88;;;1.98;;
52614;SDS011;38508;53.158;6.614;2022-11-22T12:20:08;12.00;;;2.00;;
52614;SDS011;38508;53.158;6.614;2022-11-22T12:22:45;7.63;;;2.05;;
52614;SDS011;38508;53.158;6.614;2022-11-22T12:28:02;7.70;;;1.73;;
52614;SDS011;38508;53.158;6.614;2022-11-22T12:30:41;7.30;;;1.40;;
52614;SDS011;38508;53.158;6.614;2022-11-22T12:33:13;8.35;;;1.65;;
52614;SDS011;38508;53.158;6.614;2022-11-22T12:35:44;12.75;;;1.80;;
52614;SDS011;38508;53.158;6.614;2022-11-22T12:40:45;9.10;;;2.05;;
52614;SDS011;38508;53.158;6.614;2022-11-22T12:46:17;9.05;;;2.30;;
52614;SDS011;38508;53.158;6.614;2022-11-22T12:55:01;12.25;;;1.70;;
52614;SDS011;38508;53.158;6.614;2022-11-22T12:57:44;9.07;;;1.83;;
52614;SDS011;38508;53.158;6.614;2022-11-22T13:00:17;9.70;;;2.13;;
52614;SDS011;38508;53.158;6.614;2022-11-22T13:03:09;9.98;;;1.52;;
52614;SDS011;38508;53.158;6.614;2022-11-22T13:05:39;6.22;;;1.35;;
52614;SDS011;38508;53.158;6.614;2022-11-22T13:11:18;4.70;;;1.35;;
52614;SDS011;38508;53.158;6.614;2022-11-22T13:13:51;8.13;;;1.73;;
52614;SDS011;38508;53.158;6.614;2022-11-22T13:16:21;8.48;;;1.70;;
52614;SDS011;38508;53.158;6.614;2022-11-22T13:18:48;8.75;;;1.52;;
52614;SDS011;38508;53.158;6.614;2022-11-22T13:26:42;7.07;;;1.52;;
52614;SDS011;38508;53.158;6.614;2022-11-22T13:29:26;6.90;;;1.27;;
52614;SDS011;38508;53.158;6.614;2022-11-22T13:34:35;5.15;;;1.70;;
52614;SDS011;38508;53.158;6.614;2022-11-22T13:37:07;8.00;;;1.50;;
52614;SDS011;38508;53.158;6.614;2022-11-22T13:39:38;7.22;;;1.50;;
52614;SDS011;38508;53.158;6.614;2022-11-22T13:53:36;5.85;;;1.55;;
52614;SDS011;38508;53.158;6.614;2022-11-22T14:06:47;5.53;;;1.00;;
52614;SDS011;38508;53.158;6.614;2022-11-22T14:14:46;5.45;;;1.23;;
52614;SDS011;38508;53.158;6.614;2022-11-22T14:17:54;7.38;;;1.40;;
52614;SDS011;38508;53.158;6.614;2022-11-22T14:20:39;6.20;;;1.15;;
52614;SDS011;38508;53.158;6.614;2022-11-22T14:26:15;3.97;;;0.98;;
52614;SDS011;38508;53.158;6.614;2022-11-22T14:28:58;5.22;;;1.05;;
52614;SDS011;38508;53.158;6.614;2022-11-22T14:31:31;5.72;;;1.75;;
52614;SDS011;38508;53.158;6.614;2022-11-22T14:34:14;3.80;;;1.10;;
52614;SDS011;38508;53.158;6.614;2022-11-22T14:42:43;3.10;;;0.98;;
52614;SDS011;38508;53.158;6.614;2022-11-22T14:52:50;3.67;;;1.20;;
52614;SDS011;38508;53.158;6.614;2022-11-22T14:55:30;2.90;;;1.00;;
52614;SDS011;38508;53.158;6.614;2022-11-22T14:57:59;7.20;;;1.27;;
52614;SDS011;38508;53.158;6.614;2022-11-22T15:03:38;9.73;;;2.08;;
52614;SDS011;38508;53.158;6.614;2022-11-22T15:16:58;7.07;;;1.52;;
52614;SDS011;38508;53.158;6.614;2022-11-22T15:19:37;3.95;;;1.52;;
52614;SDS011;38508;53.158;6.614;2022-11-22T15:22:05;8.68;;;1.60;;
52614;SDS011;38508;53.158;6.614;2022-11-22T15:24:51;4.13;;;1.50;;
52614;SDS011;38508;53.158;6.614;2022-11-22T15:29:44;6.85;;;1.60;;
52614;SDS011;38508;53.158;6.614;2022-11-22T15:32:12;5.45;;;1.88;;
52614;SDS011;38508;53.158;6.614;2022-11-22T15:34:43;7.30;;;1.60;;
52614;SDS011;38508;53.158;6.614;2022-11-22T15:37:24;10.18;;;1.58;;
52614;SDS011;38508;53.158;6.614;2022-11-22T15:40:06;10.18;;;1.92;;
52614;SDS011;38508;53.158;6.614;2022-11-22T15:43:18;5.75;;;1.30;;
52614;SDS011;38508;53.158;6.614;2022-11-22T15:45:44;8.00;;;1.90;;
52614;SDS011;38508;53.158;6.614;2022-11-22T15:48:53;3.45;;;1.40;;
52614;SDS011;38508;53.158;6.614;2022-11-22T15:53:37;7.30;;;1.70;;
52614;SDS011;38508;53.158;6.614;2022-11-22T15:56:13;7.68;;;1.65;;
52614;SDS011;38508;53.158;6.614;2022-11-22T15:58:49;6.40;;;1.60;;
52614;SDS011;38508;53.158;6.614;2022-11-22T16:01:15;7.53;;;1.70;;
52614;SDS011;38508;53.158;6.614;2022-11-22T16:03:43;7.38;;;1.45;;
52614;SDS011;38508;53.158;6.614;2022-11-22T16:06:14;5.40;;;1.90;;
52614;SDS011;38508;53.158;6.614;2022-11-22T16:08:52;10.18;;;1.80;;
52614;SDS011;38508;53.158;6.614;2022-11-22T16:11:24;9.85;;;2.13;;
52614;SDS011;38508;53.158;6.614;2022-11-22T16:13:56;6.45;;;1.90;;
52614;SDS011;38508;53.158;6.614;2022-11-22T16:16:29;6.72;;;1.95;;
52614;SDS011;38508;53.158;6.614;2022-11-22T16:19:16;8.57;;;1.58;;
52614;SDS011;38508;53.158;6.614;2022-11-22T16:21:57;7.88;;;2.08;;
52614;SDS011;38508;53.158;6.614;2022-11-22T16:24:26;8.75;;;1.65;;
52614;SDS011;38508;53.158;6.614;2022-11-22T16:26:55;8.55;;;1.83;;
52614;SDS011;38508;53.158;6.614;2022-11-22T16:32:13;6.38;;;1.70;;
52614;SDS011;38508;53.158;6.614;2022-11-22T16:34:40;7.53;;;1.42;;
52614;SDS011;38508;53.158;6.614;2022-11-22T16:39:55;8.32;;;1.70;;
52614;SDS011;38508;53.158;6.614;2022-11-22T16:42:22;8.25;;;1.63;;
52614;SDS011;38508;53.158;6.614;2022-11-22T16:44:51;8.60;;;1.95;;
52614;SDS011;38508;53.158;6.614;2022-11-22T16:47:17;5.35;;;1.60;;
52614;SDS011;38508;53.158;6.614;2022-11-22T16:49:44;5.40;;;1.75;;
52614;SDS011;38508;53.158;6.614;2022-11-22T16:52:10;7.72;;;1.67;;
52614;SDS011;38508;53.158;6.614;2022-11-22T16:54:37;7.60;;;2.28;;
52614;SDS011;38508;53.158;6.614;2022-11-22T16:57:10;5.93;;;1.63;;
52614;SDS011;38508;53.158;6.614;2022-11-22T16:59:36;4.90;;;1.42;;
52614;SDS011;38508;53.158;6.614;2022-11-22T17:02:02;5.07;;;1.38;;
52614;SDS011;38508;53.158;6.614;2022-11-22T17:04:34;6.05;;;1.70;;
52614;SDS011;38508;53.158;6.614;2022-11-22T17:06:59;7.82;;;2.05;;
52614;SDS011;38508;53.158;6.614;2022-11-22T17:09:25;7.93;;;2.25;;
52614;SDS011;38508;53.158;6.614;2022-11-22T17:11:51;7.03;;;1.98;;
52614;SDS011;38508;53.158;6.614;2022-11-22T17:14:17;6.60;;;1.90;;
52614;SDS011;38508;53.158;6.614;2022-11-22T17:16:44;5.55;;;1.42;;
52614;SDS011;38508;53.158;6.614;2022-11-22T17:19:10;7.85;;;1.73;;